sensor_id;sensor_type;location;lat;lon;timestamp;P1;durP1;ratioP1;P2;durP2;ratioP2
49678;SDS011;35570;48.218;16.326;2023-03-11T00:02:16;4.20;;;0.80;;
49678;SDS011;35570;48.218;16.326;2023-03-11T00:04:42;4.07;;;1.40;;
49678;SDS011;35570;48.218;16.326;2023-03-11T00:07:08;3.25;;;1.10;;
49678;SDS011;35570;48.218;16.326;2023-03-11T00:09:35;2.70;;;1.08;;
49678;SDS011;35570;48.218;16.326;2023-03-11T00:12:01;2.78;;;1.08;;
49678;SDS011;35570;48.218;16.326;2023-03-11T00:14:27;2.47;;;1.00;;
49678;SDS011;35570;48.218;16.326;2023-03-11T00:16:53;2.58;;;0.73;;
49678;SDS011;35570;48.218;16.326;2023-03-11T00:19:19;3.08;;;0.60;;
49678;SDS011;35570;48.218;16.326;2023-03-11T00:21:45;2.80;;;0.75;;
49678;SDS011;35570;48.218;16.326;2023-03-11T00:24:11;3.22;;;1.00;;
49678;SDS011;35570;48.218;16.326;2023-03-11T00:26:37;4.38;;;1.48;;
49678;SDS011;35570;48.218;16.326;2023-03-11T00:29:03;3.97;;;1.13;;
49678;SDS011;35570;48.218;16.326;2023-03-11T00:31:29;3.03;;;0.93;;
49678;SDS011;35570;48.218;16.326;2023-03-11T00:33:54;2.80;;;1.00;;
49678;SDS011;35570;48.218;16.326;2023-03-11T00:36:27;2.47;;;1.02;;
49678;SDS011;35570;48.218;16.326;2023-03-11T00:38:58;5.97;;;1.65;;
49678;SDS011;35570;48.218;16.326;2023-03-11T00:41:24;3.90;;;1.27;;
49678;SDS011;35570;48.218;16.326;2023-03-11T00:43:50;3.83;;;0.90;;
49678;SDS011;35570;48.218;16.326;2023-03-11T00:46:16;5.00;;;1.40;;
49678;SDS011;35570;48.218;16.326;2023-03-11T00:48:41;4.50;;;1.60;;
49678;SDS011;35570;48.218;16.326;2023-03-11T00:51:08;5.75;;;1.48;;
49678;SDS011;35570;48.218;16.326;2023-03-11T00:53:38;3.50;;;1.38;;
49678;SDS011;35570;48.218;16.326;2023-03-11T00:56:07;2.25;;;0.85;;
49678;SDS011;35570;48.218;16.326;2023-03-11T00:58:33;2.40;;;0.85;;
49678;SDS011;35570;48.218;16.326;2023-03-11T01:01:00;4.05;;;0.85;;
49678;SDS011;35570;48.218;16.326;2023-03-11T01:03:31;2.03;;;0.98;;
49678;SDS011;35570;48.218;16.326;2023-03-11T01:05:56;6.55;;;1.35;;
49678;SDS011;35570;48.218;16.326;2023-03-11T01:08:22;5.03;;;1.40;;
49678;SDS011;35570;48.218;16.326;2023-03-11T01:10:48;4.30;;;1.40;;
49678;SDS011;35570;48.218;16.326;2023-03-11T01:13:13;3.67;;;1.10;;
49678;SDS011;35570;48.218;16.326;2023-03-11T01:15:40;3.85;;;0.90;;
49678;SDS011;35570;48.218;16.326;2023-03-11T01:18:06;3.80;;;1.17;;
49678;SDS011;35570;48.218;16.326;2023-03-11T01:20:32;3.20;;;0.60;;
49678;SDS011;35570;48.218;16.326;2023-03-11T01:22:58;4.03;;;0.90;;
49678;SDS011;35570;48.218;16.326;2023-03-11T01:25:24;3.25;;;0.57;;
49678;SDS011;35570;48.218;16.326;2023-03-11T01:27:50;1.40;;;0.43;;
49678;SDS011;35570;48.218;16.326;2023-03-11T01:30:20;1.02;;;0.50;;
49678;SDS011;35570;48.218;16.326;2023-03-11T01:32:47;1.80;;;1.00;;
49678;SDS011;35570;48.218;16.326;2023-03-11T01:35:14;1.70;;;0.70;;
49678;SDS011;35570;48.218;16.326;2023-03-11T01:37:41;1.42;;;0.50;;
49678;SDS011;35570;48.218;16.326;2023-03-11T01:40:08;2.78;;;0.60;;
49678;SDS011;35570;48.218;16.326;2023-03-11T01:42:43;1.15;;;0.55;;
49678;SDS011;35570;48.218;16.326;2023-03-11T01:45:32;2.15;;;0.60;;
49678;SDS011;35570;48.218;16.326;2023-03-11T01:48:13;0.95;;;0.52;;
49678;SDS011;35570;48.218;16.326;2023-03-11T01:50:40;0.80;;;0.40;;
49678;SDS011;35570;48.218;16.326;2023-03-11T01:53:09;0.60;;;0.50;;
49678;SDS011;35570;48.218;16.326;2023-03-11T01:55:41;0.70;;;0.40;;
49678;SDS011;35570;48.218;16.326;2023-03-11T01:58:09;0.45;;;0.30;;
49678;SDS011;35570;48.218;16.326;2023-03-11T02:00:38;1.13;;;0.40;;
49678;SDS011;35570;48.218;16.326;2023-03-11T02:03:07;1.05;;;0.40;;
49678;SDS011;35570;48.218;16.326;2023-03-11T02:05:38;0.40;;;0.30;;
49678;SDS011;35570;48.218;16.326;2023-03-11T02:08:05;0.50;;;0.20;;
49678;SDS011;35570;48.218;16.326;2023-03-11T02:10:31;0.30;;;0.20;;
49678;SDS011;35570;48.218;16.326;2023-03-11T02:12:56;0.40;;;0.20;;
49678;SDS011;35570;48.218;16.326;2023-03-11T02:15:23;1.00;;;0.35;;
49678;SDS011;35570;48.218;16.326;2023-03-11T02:17:49;2.30;;;0.30;;
49678;SDS011;35570;48.218;16.326;2023-03-11T02:20:22;0.43;;;0.30;;
49678;SDS011;35570;48.218;16.326;2023-03-11T02:22:52;2.33;;;0.47;;
49678;SDS011;35570;48.218;16.326;2023-03-11T02:27:47;0.45;;;0.30;;
49678;SDS011;35570;48.218;16.326;2023-03-11T02:30:17;0.38;;;0.20;;
49678;SDS011;35570;48.218;16.326;2023-03-11T02:32:43;0.65;;;0.32;;
49678;SDS011;35570;48.218;16.326;2023-03-11T02:35:12;0.63;;;0.40;;
49678;SDS011;35570;48.218;16.326;2023-03-11T02:37:45;0.50;;;0.40;;
49678;SDS011;35570;48.218;16.326;2023-03-11T02:40:27;0.80;;;0.65;;
49678;SDS011;35570;48.218;16.326;2023-03-11T02:45:46;0.77;;;0.63;;
49678;SDS011;35570;48.218;16.326;2023-03-11T02:48:13;1.25;;;0.60;;
49678;SDS011;35570;48.218;16.326;2023-03-11T02:50:40;0.63;;;0.50;;
49678;SDS011;35570;48.218;16.326;2023-03-11T02:53:08;0.60;;;0.50;;
49678;SDS011;35570;48.218;16.326;2023-03-11T02:55:34;1.25;;;0.60;;
49678;SDS011;35570;48.218;16.326;2023-03-11T02:58:00;0.57;;;0.57;;
49678;SDS011;35570;48.218;16.326;2023-03-11T03:00:26;0.50;;;0.40;;
49678;SDS011;35570;48.218;16.326;2023-03-11T03:02:52;0.70;;;0.47;;
49678;SDS011;35570;48.218;16.326;2023-03-11T03:05:19;1.50;;;0.52;;
49678;SDS011;35570;48.218;16.326;2023-03-11T03:07:49;1.00;;;0.60;;
49678;SDS011;35570;48.218;16.326;2023-03-11T03:10:15;1.13;;;0.50;;
49678;SDS011;35570;48.218;16.326;2023-03-11T03:12:41;1.08;;;0.60;;
49678;SDS011;35570;48.218;16.326;2023-03-11T03:15:07;2.55;;;0.70;;
49678;SDS011;35570;48.218;16.326;2023-03-11T03:17:34;0.90;;;0.60;;
49678;SDS011;35570;48.218;16.326;2023-03-11T03:20:00;1.30;;;0.70;;
49678;SDS011;35570;48.218;16.326;2023-03-11T03:22:25;0.95;;;0.60;;
49678;SDS011;35570;48.218;16.326;2023-03-11T03:24:53;0.88;;;0.60;;
49678;SDS011;35570;48.218;16.326;2023-03-11T03:27:19;0.80;;;0.70;;
49678;SDS011;35570;48.218;16.326;2023-03-11T03:29:45;1.00;;;0.70;;
49678;SDS011;35570;48.218;16.326;2023-03-11T03:32:10;2.45;;;0.88;;
49678;SDS011;35570;48.218;16.326;2023-03-11T03:34:36;1.10;;;0.70;;
49678;SDS011;35570;48.218;16.326;2023-03-11T03:37:02;0.60;;;0.57;;
49678;SDS011;35570;48.218;16.326;2023-03-11T03:39:27;1.27;;;0.50;;
49678;SDS011;35570;48.218;16.326;2023-03-11T03:41:53;0.80;;;0.60;;
49678;SDS011;35570;48.218;16.326;2023-03-11T03:44:19;2.53;;;0.73;;
49678;SDS011;35570;48.218;16.326;2023-03-11T03:46:44;2.03;;;0.70;;
49678;SDS011;35570;48.218;16.326;2023-03-11T03:49:10;0.93;;;0.70;;
49678;SDS011;35570;48.218;16.326;2023-03-11T03:51:35;1.20;;;0.85;;
49678;SDS011;35570;48.218;16.326;2023-03-11T03:54:01;1.00;;;0.55;;
49678;SDS011;35570;48.218;16.326;2023-03-11T03:56:27;0.65;;;0.45;;
49678;SDS011;35570;48.218;16.326;2023-03-11T03:58:52;1.30;;;0.63;;
49678;SDS011;35570;48.218;16.326;2023-03-11T04:01:18;0.85;;;0.60;;
49678;SDS011;35570;48.218;16.326;2023-03-11T04:03:44;0.73;;;0.45;;
49678;SDS011;35570;48.218;16.326;2023-03-11T04:06:14;0.90;;;0.65;;
49678;SDS011;35570;48.218;16.326;2023-03-11T04:08:41;0.90;;;0.70;;
49678;SDS011;35570;48.218;16.326;2023-03-11T04:11:06;0.90;;;0.50;;
49678;SDS011;35570;48.218;16.326;2023-03-11T04:13:32;0.75;;;0.52;;
49678;SDS011;35570;48.218;16.326;2023-03-11T04:15:58;1.90;;;0.50;;
49678;SDS011;35570;48.218;16.326;2023-03-11T04:18:24;2.00;;;0.98;;
49678;SDS011;35570;48.218;16.326;2023-03-11T04:20:49;1.10;;;0.60;;
49678;SDS011;35570;48.218;16.326;2023-03-11T04:23:15;1.23;;;0.60;;
49678;SDS011;35570;48.218;16.326;2023-03-11T04:25:41;0.90;;;0.57;;
49678;SDS011;35570;48.218;16.326;2023-03-11T04:28:07;0.65;;;0.50;;
49678;SDS011;35570;48.218;16.326;2023-03-11T04:30:32;0.80;;;0.50;;
49678;SDS011;35570;48.218;16.326;2023-03-11T04:32:58;1.00;;;0.50;;
49678;SDS011;35570;48.218;16.326;2023-03-11T04:35:23;0.95;;;0.50;;
49678;SDS011;35570;48.218;16.326;2023-03-11T04:37:49;0.82;;;0.52;;
49678;SDS011;35570;48.218;16.326;2023-03-11T04:40:15;0.50;;;0.35;;
49678;SDS011;35570;48.218;16.326;2023-03-11T04:42:41;0.60;;;0.38;;
49678;SDS011;35570;48.218;16.326;2023-03-11T04:45:06;0.75;;;0.50;;
49678;SDS011;35570;48.218;16.326;2023-03-11T04:47:33;0.45;;;0.30;;
49678;SDS011;35570;48.218;16.326;2023-03-11T04:49:58;0.22;;;0.20;;
49678;SDS011;35570;48.218;16.326;2023-03-11T04:52:24;0.68;;;0.55;;
49678;SDS011;35570;48.218;16.326;2023-03-11T04:55:08;0.30;;;0.20;;
49678;SDS011;35570;48.218;16.326;2023-03-11T04:57:34;2.15;;;0.40;;
49678;SDS011;35570;48.218;16.326;2023-03-11T05:00:00;0.40;;;0.22;;
49678;SDS011;35570;48.218;16.326;2023-03-11T05:02:30;0.47;;;0.38;;
49678;SDS011;35570;48.218;16.326;2023-03-11T05:04:56;0.50;;;0.32;;
49678;SDS011;35570;48.218;16.326;2023-03-11T05:07:22;0.70;;;0.40;;
49678;SDS011;35570;48.218;16.326;2023-03-11T05:09:48;2.55;;;0.65;;
49678;SDS011;35570;48.218;16.326;2023-03-11T05:12:13;1.17;;;0.47;;
49678;SDS011;35570;48.218;16.326;2023-03-11T05:14:39;0.50;;;0.38;;
49678;SDS011;35570;48.218;16.326;2023-03-11T05:17:05;0.52;;;0.30;;
49678;SDS011;35570;48.218;16.326;2023-03-11T05:19:30;0.55;;;0.40;;
49678;SDS011;35570;48.218;16.326;2023-03-11T05:21:58;1.90;;;0.52;;
49678;SDS011;35570;48.218;16.326;2023-03-11T05:24:24;0.88;;;0.50;;
49678;SDS011;35570;48.218;16.326;2023-03-11T05:26:50;0.68;;;0.40;;
49678;SDS011;35570;48.218;16.326;2023-03-11T05:29:16;0.70;;;0.38;;
49678;SDS011;35570;48.218;16.326;2023-03-11T05:31:42;0.65;;;0.40;;
49678;SDS011;35570;48.218;16.326;2023-03-11T05:34:08;1.55;;;0.40;;
49678;SDS011;35570;48.218;16.326;2023-03-11T05:36:33;2.05;;;0.52;;
49678;SDS011;35570;48.218;16.326;2023-03-11T05:38:59;0.82;;;0.38;;
49678;SDS011;35570;48.218;16.326;2023-03-11T05:41:24;1.13;;;0.30;;
49678;SDS011;35570;48.218;16.326;2023-03-11T05:43:50;0.55;;;0.40;;
49678;SDS011;35570;48.218;16.326;2023-03-11T05:46:16;0.45;;;0.25;;
49678;SDS011;35570;48.218;16.326;2023-03-11T05:48:41;0.70;;;0.50;;
49678;SDS011;35570;48.218;16.326;2023-03-11T05:51:08;1.15;;;0.55;;
49678;SDS011;35570;48.218;16.326;2023-03-11T05:53:35;1.70;;;0.70;;
49678;SDS011;35570;48.218;16.326;2023-03-11T05:56:01;0.60;;;0.43;;
49678;SDS011;35570;48.218;16.326;2023-03-11T05:58:28;0.80;;;0.47;;
49678;SDS011;35570;48.218;16.326;2023-03-11T06:00:54;0.70;;;0.50;;
49678;SDS011;35570;48.218;16.326;2023-03-11T06:03:20;0.65;;;0.40;;
49678;SDS011;35570;48.218;16.326;2023-03-11T06:05:46;0.77;;;0.40;;
49678;SDS011;35570;48.218;16.326;2023-03-11T06:08:13;0.60;;;0.38;;
49678;SDS011;35570;48.218;16.326;2023-03-11T06:10:39;0.80;;;0.40;;
49678;SDS011;35570;48.218;16.326;2023-03-11T06:13:05;0.88;;;0.50;;
49678;SDS011;35570;48.218;16.326;2023-03-11T06:15:34;0.80;;;0.40;;
49678;SDS011;35570;48.218;16.326;2023-03-11T06:18:00;0.43;;;0.28;;
49678;SDS011;35570;48.218;16.326;2023-03-11T06:20:26;0.70;;;0.47;;
49678;SDS011;35570;48.218;16.326;2023-03-11T06:22:51;0.57;;;0.40;;
49678;SDS011;35570;48.218;16.326;2023-03-11T06:25:17;1.60;;;0.50;;
49678;SDS011;35570;48.218;16.326;2023-03-11T06:27:43;0.90;;;0.45;;
49678;SDS011;35570;48.218;16.326;2023-03-11T06:30:14;1.33;;;0.50;;
49678;SDS011;35570;48.218;16.326;2023-03-11T06:32:42;0.60;;;0.35;;
49678;SDS011;35570;48.218;16.326;2023-03-11T06:35:08;0.70;;;0.50;;
49678;SDS011;35570;48.218;16.326;2023-03-11T06:37:35;1.13;;;0.45;;
49678;SDS011;35570;48.218;16.326;2023-03-11T06:40:01;0.70;;;0.47;;
49678;SDS011;35570;48.218;16.326;2023-03-11T06:42:28;0.80;;;0.47;;
49678;SDS011;35570;48.218;16.326;2023-03-11T06:44:54;2.75;;;0.73;;
49678;SDS011;35570;48.218;16.326;2023-03-11T06:47:20;2.97;;;0.80;;
49678;SDS011;35570;48.218;16.326;2023-03-11T06:49:46;0.77;;;0.40;;
49678;SDS011;35570;48.218;16.326;2023-03-11T06:52:11;1.20;;;0.68;;
49678;SDS011;35570;48.218;16.326;2023-03-11T06:54:37;1.27;;;0.75;;
49678;SDS011;35570;48.218;16.326;2023-03-11T06:57:05;1.35;;;0.50;;
49678;SDS011;35570;48.218;16.326;2023-03-11T06:59:31;0.88;;;0.68;;
49678;SDS011;35570;48.218;16.326;2023-03-11T07:01:57;0.85;;;0.50;;
49678;SDS011;35570;48.218;16.326;2023-03-11T07:04:23;0.82;;;0.57;;
49678;SDS011;35570;48.218;16.326;2023-03-11T07:06:48;0.98;;;0.50;;
49678;SDS011;35570;48.218;16.326;2023-03-11T07:09:14;0.95;;;0.65;;
49678;SDS011;35570;48.218;16.326;2023-03-11T07:11:40;2.25;;;0.65;;
49678;SDS011;35570;48.218;16.326;2023-03-11T07:14:06;0.73;;;0.43;;
49678;SDS011;35570;48.218;16.326;2023-03-11T07:16:32;1.38;;;0.52;;
49678;SDS011;35570;48.218;16.326;2023-03-11T07:18:58;1.20;;;0.80;;
49678;SDS011;35570;48.218;16.326;2023-03-11T07:21:27;2.80;;;0.80;;
49678;SDS011;35570;48.218;16.326;2023-03-11T07:23:54;1.10;;;0.50;;
49678;SDS011;35570;48.218;16.326;2023-03-11T07:26:21;1.35;;;0.82;;
49678;SDS011;35570;48.218;16.326;2023-03-11T07:28:48;1.45;;;0.70;;
49678;SDS011;35570;48.218;16.326;2023-03-11T07:31:16;0.50;;;0.45;;
49678;SDS011;35570;48.218;16.326;2023-03-11T07:33:47;1.90;;;0.70;;
49678;SDS011;35570;48.218;16.326;2023-03-11T07:36:14;1.27;;;0.73;;
49678;SDS011;35570;48.218;16.326;2023-03-11T07:38:41;0.50;;;0.47;;
49678;SDS011;35570;48.218;16.326;2023-03-11T07:41:08;0.70;;;0.40;;
49678;SDS011;35570;48.218;16.326;2023-03-11T07:43:38;0.63;;;0.50;;
49678;SDS011;35570;48.218;16.326;2023-03-11T07:46:06;1.05;;;0.60;;
49678;SDS011;35570;48.218;16.326;2023-03-11T07:48:36;1.17;;;0.68;;
49678;SDS011;35570;48.218;16.326;2023-03-11T07:51:04;3.22;;;0.85;;
49678;SDS011;35570;48.218;16.326;2023-03-11T07:53:32;1.20;;;0.63;;
49678;SDS011;35570;48.218;16.326;2023-03-11T07:55:58;0.68;;;0.50;;
49678;SDS011;35570;48.218;16.326;2023-03-11T07:58:24;0.75;;;0.60;;
49678;SDS011;35570;48.218;16.326;2023-03-11T08:00:51;0.77;;;0.60;;
49678;SDS011;35570;48.218;16.326;2023-03-11T08:03:16;0.60;;;0.40;;
49678;SDS011;35570;48.218;16.326;2023-03-11T08:05:42;1.05;;;0.45;;
49678;SDS011;35570;48.218;16.326;2023-03-11T08:08:13;0.60;;;0.50;;
49678;SDS011;35570;48.218;16.326;2023-03-11T08:10:39;0.93;;;0.50;;
49678;SDS011;35570;48.218;16.326;2023-03-11T08:13:04;0.93;;;0.60;;
49678;SDS011;35570;48.218;16.326;2023-03-11T08:15:30;1.35;;;0.65;;
49678;SDS011;35570;48.218;16.326;2023-03-11T08:17:56;1.10;;;0.80;;
49678;SDS011;35570;48.218;16.326;2023-03-11T08:20:23;2.40;;;0.82;;
49678;SDS011;35570;48.218;16.326;2023-03-11T08:22:48;0.80;;;0.47;;
49678;SDS011;35570;48.218;16.326;2023-03-11T08:25:14;0.90;;;0.50;;
49678;SDS011;35570;48.218;16.326;2023-03-11T08:27:40;1.30;;;0.70;;
49678;SDS011;35570;48.218;16.326;2023-03-11T08:30:06;1.38;;;0.60;;
49678;SDS011;35570;48.218;16.326;2023-03-11T08:32:32;1.20;;;0.50;;
49678;SDS011;35570;48.218;16.326;2023-03-11T08:34:58;4.20;;;0.50;;
49678;SDS011;35570;48.218;16.326;2023-03-11T08:37:23;0.80;;;0.40;;
49678;SDS011;35570;48.218;16.326;2023-03-11T08:39:49;1.95;;;0.75;;
49678;SDS011;35570;48.218;16.326;2023-03-11T08:42:15;1.00;;;0.65;;
49678;SDS011;35570;48.218;16.326;2023-03-11T08:44:42;0.70;;;0.60;;
49678;SDS011;35570;48.218;16.326;2023-03-11T08:47:08;0.98;;;0.70;;
49678;SDS011;35570;48.218;16.326;2023-03-11T08:49:33;0.80;;;0.50;;
49678;SDS011;35570;48.218;16.326;2023-03-11T08:52:00;1.00;;;0.50;;
49678;SDS011;35570;48.218;16.326;2023-03-11T08:54:26;1.95;;;0.40;;
49678;SDS011;35570;48.218;16.326;2023-03-11T08:56:52;3.22;;;0.40;;
49678;SDS011;35570;48.218;16.326;2023-03-11T08:59:18;2.20;;;0.50;;
49678;SDS011;35570;48.218;16.326;2023-03-11T09:01:44;0.60;;;0.30;;
49678;SDS011;35570;48.218;16.326;2023-03-11T09:04:10;0.88;;;0.50;;
49678;SDS011;35570;48.218;16.326;2023-03-11T09:06:38;0.73;;;0.35;;
49678;SDS011;35570;48.218;16.326;2023-03-11T09:09:06;1.50;;;0.93;;
49678;SDS011;35570;48.218;16.326;2023-03-11T09:11:33;1.77;;;0.85;;
49678;SDS011;35570;48.218;16.326;2023-03-11T09:14:01;2.30;;;0.88;;
49678;SDS011;35570;48.218;16.326;2023-03-11T09:16:27;2.05;;;0.50;;
49678;SDS011;35570;48.218;16.326;2023-03-11T09:18:53;0.68;;;0.50;;
49678;SDS011;35570;48.218;16.326;2023-03-11T09:21:18;1.20;;;0.43;;
49678;SDS011;35570;48.218;16.326;2023-03-11T09:23:44;1.02;;;0.28;;
49678;SDS011;35570;48.218;16.326;2023-03-11T09:26:11;0.60;;;0.28;;
49678;SDS011;35570;48.218;16.326;2023-03-11T09:28:37;0.38;;;0.30;;
49678;SDS011;35570;48.218;16.326;2023-03-11T09:31:04;2.80;;;0.40;;
49678;SDS011;35570;48.218;16.326;2023-03-11T09:33:30;2.67;;;0.40;;
49678;SDS011;35570;48.218;16.326;2023-03-11T09:35:56;3.05;;;0.40;;
49678;SDS011;35570;48.218;16.326;2023-03-11T09:38:22;0.50;;;0.30;;
49678;SDS011;35570;48.218;16.326;2023-03-11T09:51:35;1.73;;;0.52;;
49678;SDS011;35570;48.218;16.326;2023-03-11T09:54:10;0.75;;;0.30;;
49678;SDS011;35570;48.218;16.326;2023-03-11T09:56:37;0.70;;;0.40;;
49678;SDS011;35570;48.218;16.326;2023-03-11T09:59:20;1.13;;;0.52;;
49678;SDS011;35570;48.218;16.326;2023-03-11T10:01:56;1.35;;;0.43;;
49678;SDS011;35570;48.218;16.326;2023-03-11T10:04:31;0.90;;;0.60;;
49678;SDS011;35570;48.218;16.326;2023-03-11T10:07:08;1.08;;;0.68;;
49678;SDS011;35570;48.218;16.326;2023-03-11T10:09:50;0.82;;;0.50;;
49678;SDS011;35570;48.218;16.326;2023-03-11T10:22:36;0.52;;;0.30;;
49678;SDS011;35570;48.218;16.326;2023-03-11T10:25:45;1.23;;;0.43;;
49678;SDS011;35570;48.218;16.326;2023-03-11T10:28:21;0.90;;;0.50;;
49678;SDS011;35570;48.218;16.326;2023-03-11T10:31:33;1.08;;;0.30;;
49678;SDS011;35570;48.218;16.326;2023-03-11T10:36:49;1.45;;;0.40;;
49678;SDS011;35570;48.218;16.326;2023-03-11T10:39:35;0.80;;;0.50;;
49678;SDS011;35570;48.218;16.326;2023-03-11T10:42:02;1.60;;;0.77;;
49678;SDS011;35570;48.218;16.326;2023-03-11T10:46:59;1.95;;;0.98;;
49678;SDS011;35570;48.218;16.326;2023-03-11T10:49:25;1.20;;;0.68;;
49678;SDS011;35570;48.218;16.326;2023-03-11T10:51:52;2.22;;;0.50;;
49678;SDS011;35570;48.218;16.326;2023-03-11T10:54:33;2.78;;;0.60;;
49678;SDS011;35570;48.218;16.326;2023-03-11T10:57:03;1.10;;;0.70;;
49678;SDS011;35570;48.218;16.326;2023-03-11T10:59:47;1.25;;;0.35;;
49678;SDS011;35570;48.218;16.326;2023-03-11T11:04:46;1.05;;;0.40;;
49678;SDS011;35570;48.218;16.326;2023-03-11T11:09:44;0.93;;;0.40;;
49678;SDS011;35570;48.218;16.326;2023-03-11T11:12:12;1.17;;;0.70;;
49678;SDS011;35570;48.218;16.326;2023-03-11T11:17:21;20.83;;;2.30;;
49678;SDS011;35570;48.218;16.326;2023-03-11T11:19:50;1.98;;;0.55;;
49678;SDS011;35570;48.218;16.326;2023-03-11T11:22:18;1.00;;;0.70;;
49678;SDS011;35570;48.218;16.326;2023-03-11T11:24:46;3.05;;;0.55;;
49678;SDS011;35570;48.218;16.326;2023-03-11T11:27:19;1.52;;;1.10;;
49678;SDS011;35570;48.218;16.326;2023-03-11T11:30:04;0.98;;;0.80;;
49678;SDS011;35570;48.218;16.326;2023-03-11T11:32:40;1.63;;;0.70;;
49678;SDS011;35570;48.218;16.326;2023-03-11T11:35:09;1.52;;;0.80;;
49678;SDS011;35570;48.218;16.326;2023-03-11T11:40:33;0.70;;;0.40;;
49678;SDS011;35570;48.218;16.326;2023-03-11T11:43:00;0.70;;;0.50;;
49678;SDS011;35570;48.218;16.326;2023-03-11T11:45:37;6.97;;;1.10;;
49678;SDS011;35570;48.218;16.326;2023-03-11T11:48:18;2.47;;;0.60;;
49678;SDS011;35570;48.218;16.326;2023-03-11T11:50:52;1.88;;;0.70;;
49678;SDS011;35570;48.218;16.326;2023-03-11T11:55:50;0.80;;;0.60;;
49678;SDS011;35570;48.218;16.326;2023-03-11T11:58:18;1.05;;;0.60;;
49678;SDS011;35570;48.218;16.326;2023-03-11T12:00:48;0.75;;;0.40;;
49678;SDS011;35570;48.218;16.326;2023-03-11T12:06:46;5.95;;;0.90;;
49678;SDS011;35570;48.218;16.326;2023-03-11T12:09:44;0.90;;;0.30;;
49678;SDS011;35570;48.218;16.326;2023-03-11T12:17:42;1.85;;;0.73;;
49678;SDS011;35570;48.218;16.326;2023-03-11T12:25:18;1.33;;;0.60;;
49678;SDS011;35570;48.218;16.326;2023-03-11T12:30:49;0.80;;;0.60;;
49678;SDS011;35570;48.218;16.326;2023-03-11T12:35:53;1.40;;;0.68;;
49678;SDS011;35570;48.218;16.326;2023-03-11T12:38:33;2.55;;;0.98;;
49678;SDS011;35570;48.218;16.326;2023-03-11T12:41:05;2.20;;;0.47;;
49678;SDS011;35570;48.218;16.326;2023-03-11T12:46:01;0.60;;;0.45;;
49678;SDS011;35570;48.218;16.326;2023-03-11T12:54:19;0.95;;;0.43;;
49678;SDS011;35570;48.218;16.326;2023-03-11T12:56:44;0.85;;;0.45;;
49678;SDS011;35570;48.218;16.326;2023-03-11T13:02:03;7.28;;;0.98;;
49678;SDS011;35570;48.218;16.326;2023-03-11T13:07:35;1.45;;;0.82;;
49678;SDS011;35570;48.218;16.326;2023-03-11T13:12:54;0.85;;;0.52;;
49678;SDS011;35570;48.218;16.326;2023-03-11T13:25:42;1.77;;;0.85;;
49678;SDS011;35570;48.218;16.326;2023-03-11T13:33:54;1.65;;;1.17;;
49678;SDS011;35570;48.218;16.326;2023-03-11T13:41:39;4.35;;;1.50;;
49678;SDS011;35570;48.218;16.326;2023-03-11T13:46:49;2.75;;;0.95;;
49678;SDS011;35570;48.218;16.326;2023-03-11T13:49:27;2.50;;;0.73;;
49678;SDS011;35570;48.218;16.326;2023-03-11T13:52:06;0.85;;;0.50;;
49678;SDS011;35570;48.218;16.326;2023-03-11T13:54:38;0.80;;;0.60;;
49678;SDS011;35570;48.218;16.326;2023-03-11T13:57:10;1.90;;;0.90;;
49678;SDS011;35570;48.218;16.326;2023-03-11T13:59:49;2.42;;;1.30;;
49678;SDS011;35570;48.218;16.326;2023-03-11T14:02:18;1.77;;;0.80;;
49678;SDS011;35570;48.218;16.326;2023-03-11T14:05:02;8.05;;;1.33;;
49678;SDS011;35570;48.218;16.326;2023-03-11T14:07:31;2.45;;;1.30;;
49678;SDS011;35570;48.218;16.326;2023-03-11T14:10:18;2.25;;;1.33;;
49678;SDS011;35570;48.218;16.326;2023-03-11T14:12:45;1.52;;;0.95;;
49678;SDS011;35570;48.218;16.326;2023-03-11T14:15:28;1.80;;;1.02;;
49678;SDS011;35570;48.218;16.326;2023-03-11T14:20:50;2.50;;;1.10;;
49678;SDS011;35570;48.218;16.326;2023-03-11T14:23:17;3.20;;;1.00;;
49678;SDS011;35570;48.218;16.326;2023-03-11T14:25:44;5.93;;;1.10;;
49678;SDS011;35570;48.218;16.326;2023-03-11T14:28:17;2.20;;;1.30;;
49678;SDS011;35570;48.218;16.326;2023-03-11T14:30:54;1.33;;;0.98;;
49678;SDS011;35570;48.218;16.326;2023-03-11T14:33:23;2.47;;;0.80;;
49678;SDS011;35570;48.218;16.326;2023-03-11T14:35:57;0.88;;;0.50;;
49678;SDS011;35570;48.218;16.326;2023-03-11T14:38:28;25.33;;;2.05;;
49678;SDS011;35570;48.218;16.326;2023-03-11T14:40:55;0.90;;;0.63;;
49678;SDS011;35570;48.218;16.326;2023-03-11T14:43:33;1.70;;;0.75;;
49678;SDS011;35570;48.218;16.326;2023-03-11T14:46:03;3.20;;;0.80;;
49678;SDS011;35570;48.218;16.326;2023-03-11T14:48:32;2.97;;;1.02;;
49678;SDS011;35570;48.218;16.326;2023-03-11T14:51:03;2.10;;;1.17;;
49678;SDS011;35570;48.218;16.326;2023-03-11T14:53:39;2.22;;;1.20;;
49678;SDS011;35570;48.218;16.326;2023-03-11T14:56:29;6.32;;;1.42;;
49678;SDS011;35570;48.218;16.326;2023-03-11T14:59:02;2.97;;;1.02;;
49678;SDS011;35570;48.218;16.326;2023-03-11T15:01:36;2.45;;;1.35;;
49678;SDS011;35570;48.218;16.326;2023-03-11T15:04:40;5.35;;;0.93;;
49678;SDS011;35570;48.218;16.326;2023-03-11T15:07:02;2.40;;;0.80;;
49678;SDS011;35570;48.218;16.326;2023-03-11T15:09:29;1.33;;;0.70;;
49678;SDS011;35570;48.218;16.326;2023-03-11T15:11:57;1.30;;;0.75;;
49678;SDS011;35570;48.218;16.326;2023-03-11T15:16:51;1.98;;;0.80;;
49678;SDS011;35570;48.218;16.326;2023-03-11T15:21:53;2.53;;;1.20;;
49678;SDS011;35570;48.218;16.326;2023-03-11T15:24:25;3.45;;;1.33;;
49678;SDS011;35570;48.218;16.326;2023-03-11T15:29:18;23.17;;;2.50;;
49678;SDS011;35570;48.218;16.326;2023-03-11T15:31:44;2.85;;;1.33;;
49678;SDS011;35570;48.218;16.326;2023-03-11T15:34:20;1.92;;;1.10;;
49678;SDS011;35570;48.218;16.326;2023-03-11T15:37:00;1.33;;;0.98;;
49678;SDS011;35570;48.218;16.326;2023-03-11T15:47:36;2.15;;;0.73;;
49678;SDS011;35570;48.218;16.326;2023-03-11T15:50:24;0.75;;;0.60;;
49678;SDS011;35570;48.218;16.326;2023-03-11T15:52:52;1.38;;;0.80;;
49678;SDS011;35570;48.218;16.326;2023-03-11T15:55:19;2.30;;;0.90;;
49678;SDS011;35570;48.218;16.326;2023-03-11T15:57:46;2.63;;;0.70;;
49678;SDS011;35570;48.218;16.326;2023-03-11T16:00:15;0.98;;;0.60;;
49678;SDS011;35570;48.218;16.326;2023-03-11T16:02:46;3.17;;;0.50;;
49678;SDS011;35570;48.218;16.326;2023-03-11T16:05:19;1.58;;;0.63;;
49678;SDS011;35570;48.218;16.326;2023-03-11T16:07:46;3.33;;;1.33;;
49678;SDS011;35570;48.218;16.326;2023-03-11T16:10:13;3.50;;;1.15;;
49678;SDS011;35570;48.218;16.326;2023-03-11T16:12:40;2.88;;;0.90;;
49678;SDS011;35570;48.218;16.326;2023-03-11T16:17:52;2.05;;;1.02;;
49678;SDS011;35570;48.218;16.326;2023-03-11T16:20:20;2.10;;;1.10;;
49678;SDS011;35570;48.218;16.326;2023-03-11T16:22:48;2.00;;;1.00;;
49678;SDS011;35570;48.218;16.326;2023-03-11T16:27:48;2.60;;;1.20;;
49678;SDS011;35570;48.218;16.326;2023-03-11T16:30:16;2.22;;;0.93;;
49678;SDS011;35570;48.218;16.326;2023-03-11T16:32:42;3.47;;;1.30;;
49678;SDS011;35570;48.218;16.326;2023-03-11T16:35:08;1.52;;;1.00;;
49678;SDS011;35570;48.218;16.326;2023-03-11T16:37:35;2.67;;;1.27;;
49678;SDS011;35570;48.218;16.326;2023-03-11T16:40:00;3.53;;;1.30;;
49678;SDS011;35570;48.218;16.326;2023-03-11T16:42:26;5.00;;;1.25;;
49678;SDS011;35570;48.218;16.326;2023-03-11T16:44:52;1.77;;;1.17;;
49678;SDS011;35570;48.218;16.326;2023-03-11T16:47:18;4.00;;;1.25;;
49678;SDS011;35570;48.218;16.326;2023-03-11T16:49:43;4.20;;;1.27;;
49678;SDS011;35570;48.218;16.326;2023-03-11T16:52:09;2.17;;;0.77;;